sensor_id;sensor_type;location;lat;lon;timestamp;temperature;humidity
34574;DHT22;20809;49.594;8.734;2023-01-09T00:01:30;7.90;99.90
34574;DHT22;20809;49.594;8.734;2023-01-09T00:04:31;7.90;99.90
34574;DHT22;20809;49.594;8.734;2023-01-09T00:07:32;8.00;99.90
34574;DHT22;20809;49.594;8.734;2023-01-09T00:10:33;8.00;99.90
34574;DHT22;20809;49.594;8.734;2023-01-09T00:13:33;8.00;99.90
34574;DHT22;20809;49.594;8.734;2023-01-09T00:16:34;8.00;99.90
34574;DHT22;20809;49.594;8.734;2023-01-09T00:19:35;8.00;99.90
34574;DHT22;20809;49.594;8.734;2023-01-09T00:22:36;8.00;99.90
34574;DHT22;20809;49.594;8.734;2023-01-09T00:25:37;8.00;99.90
34574;DHT22;20809;49.594;8.734;2023-01-09T00:28:38;8.00;99.90
34574;DHT22;20809;49.594;8.734;2023-01-09T00:31:39;7.90;99.90
34574;DHT22;20809;49.594;8.734;2023-01-09T00:34:40;7.90;99.90
34574;DHT22;20809;49.594;8.734;2023-01-09T00:37:43;7.90;99.90
34574;DHT22;20809;49.594;8.734;2023-01-09T00:40:43;7.90;99.90
34574;DHT22;20809;49.594;8.734;2023-01-09T00:43:49;8.00;99.90
34574;DHT22;20809;49.594;8.734;2023-01-09T00:46:55;8.00;99.90
34574;DHT22;20809;49.594;8.734;2023-01-09T00:50:04;8.00;99.90
34574;DHT22;20809;49.594;8.734;2023-01-09T00:53:09;8.00;99.90
34574;DHT22;20809;49.594;8.734;2023-01-09T00:56:16;8.00;99.90
34574;DHT22;20809;49.594;8.734;2023-01-09T00:59:17;8.10;99.90
34574;DHT22;20809;49.594;8.734;2023-01-09T01:02:18;8.00;99.90
34574;DHT22;20809;49.594;8.734;2023-01-09T01:05:19;8.10;99.90
34574;DHT22;20809;49.594;8.734;2023-01-09T01:08:38;8.10;99.90
34574;DHT22;20809;49.594;8.734;2023-01-09T01:11:39;8.20;99.90
34574;DHT22;20809;49.594;8.734;2023-01-09T01:14:39;8.30;99.90
34574;DHT22;20809;49.594;8.734;2023-01-09T01:17:40;8.30;99.90
34574;DHT22;20809;49.594;8.734;2023-01-09T01:20:43;8.30;99.90
34574;DHT22;20809;49.594;8.734;2023-01-09T01:23:44;8.30;99.90
34574;DHT22;20809;49.594;8.734;2023-01-09T01:26:45;8.40;99.90
34574;DHT22;20809;49.594;8.734;2023-01-09T01:29:46;8.30;99.90
34574;DHT22;20809;49.594;8.734;2023-01-09T01:32:47;8.40;99.90
34574;DHT22;20809;49.594;8.734;2023-01-09T01:35:47;8.40;99.90
34574;DHT22;20809;49.594;8.734;2023-01-09T01:38:49;8.40;99.90
34574;DHT22;20809;49.594;8.734;2023-01-09T01:41:51;8.50;99.90
34574;DHT22;20809;49.594;8.734;2023-01-09T01:48:08;8.40;99.90
34574;DHT22;20809;49.594;8.734;2023-01-09T01:51:11;8.50;99.90
34574;DHT22;20809;49.594;8.734;2023-01-09T01:54:22;8.40;99.90
34574;DHT22;20809;49.594;8.734;2023-01-09T02:02:40;8.40;99.90
34574;DHT22;20809;49.594;8.734;2023-01-09T02:05:43;8.30;99.90
34574;DHT22;20809;49.594;8.734;2023-01-09T02:08:44;8.30;99.90
34574;DHT22;20809;49.594;8.734;2023-01-09T02:11:47;8.30;99.90
34574;DHT22;20809;49.594;8.734;2023-01-09T02:15:01;8.30;99.90
34574;DHT22;20809;49.594;8.734;2023-01-09T02:18:14;8.40;99.90
34574;DHT22;20809;49.594;8.734;2023-01-09T02:21:27;8.40;99.90
34574;DHT22;20809;49.594;8.734;2023-01-09T02:34:59;8.50;99.90
34574;DHT22;20809;49.594;8.734;2023-01-09T02:41:42;8.40;99.90
34574;DHT22;20809;49.594;8.734;2023-01-09T02:44:45;8.40;99.90
34574;DHT22;20809;49.594;8.734;2023-01-09T02:47:46;8.40;99.90
34574;DHT22;20809;49.594;8.734;2023-01-09T02:54:32;8.50;99.90
34574;DHT22;20809;49.594;8.734;2023-01-09T03:04:14;8.30;99.90
34574;DHT22;20809;49.594;8.734;2023-01-09T03:07:25;8.30;99.90
34574;DHT22;20809;49.594;8.734;2023-01-09T03:10:40;8.30;99.90
34574;DHT22;20809;49.594;8.734;2023-01-09T03:13:51;8.20;99.90
34574;DHT22;20809;49.594;8.734;2023-01-09T03:16:57;8.20;99.90
34574;DHT22;20809;49.594;8.734;2023-01-09T03:20:00;8.10;99.90
34574;DHT22;20809;49.594;8.734;2023-01-09T03:23:04;8.10;99.90
34574;DHT22;20809;49.594;8.734;2023-01-09T03:26:08;8.00;99.90
34574;DHT22;20809;49.594;8.734;2023-01-09T03:29:10;8.00;99.90
34574;DHT22;20809;49.594;8.734;2023-01-09T03:32:11;8.00;99.90
34574;DHT22;20809;49.594;8.734;2023-01-09T03:35:12;7.90;99.90
34574;DHT22;20809;49.594;8.734;2023-01-09T03:38:13;7.90;99.90
34574;DHT22;20809;49.594;8.734;2023-01-09T03:41:14;7.90;99.90
34574;DHT22;20809;49.594;8.734;2023-01-09T03:44:15;7.90;99.90
34574;DHT22;20809;49.594;8.734;2023-01-09T03:47:16;7.80;99.90
34574;DHT22;20809;49.594;8.734;2023-01-09T03:50:16;7.80;99.90
34574;DHT22;20809;49.594;8.734;2023-01-09T03:53:19;7.90;99.90
34574;DHT22;20809;49.594;8.734;2023-01-09T03:56:20;7.80;99.90
34574;DHT22;20809;49.594;8.734;2023-01-09T03:59:20;7.90;99.90
34574;DHT22;20809;49.594;8.734;2023-01-09T04:02:21;7.90;99.90
34574;DHT22;20809;49.594;8.734;2023-01-09T04:05:22;7.80;99.90
34574;DHT22;20809;49.594;8.734;2023-01-09T04:08:22;7.80;99.90
34574;DHT22;20809;49.594;8.734;2023-01-09T04:11:23;7.80;99.90
34574;DHT22;20809;49.594;8.734;2023-01-09T04:14:24;7.80;99.90
34574;DHT22;20809;49.594;8.734;2023-01-09T04:17:24;7.80;99.90
34574;DHT22;20809;49.594;8.734;2023-01-09T04:20:25;7.80;99.90
34574;DHT22;20809;49.594;8.734;2023-01-09T04:23:26;7.80;99.90
34574;DHT22;20809;49.594;8.734;2023-01-09T04:26:27;7.80;99.90
34574;DHT22;20809;49.594;8.734;2023-01-09T04:29:27;7.80;99.90
34574;DHT22;20809;49.594;8.734;2023-01-09T04:32:28;7.80;99.90
34574;DHT22;20809;49.594;8.734;2023-01-09T04:35:29;7.70;99.90
34574;DHT22;20809;49.594;8.734;2023-01-09T04:38:30;7.80;99.90
34574;DHT22;20809;49.594;8.734;2023-01-09T04:41:30;7.70;99.90
34574;DHT22;20809;49.594;8.734;2023-01-09T04:44:49;7.70;99.90
34574;DHT22;20809;49.594;8.734;2023-01-09T04:47:53;7.70;99.90
34574;DHT22;20809;49.594;8.734;2023-01-09T04:50:54;7.70;99.90
34574;DHT22;20809;49.594;8.734;2023-01-09T04:53:54;7.60;99.90
34574;DHT22;20809;49.594;8.734;2023-01-09T04:56:55;7.60;99.90
34574;DHT22;20809;49.594;8.734;2023-01-09T04:59:56;7.60;99.90
34574;DHT22;20809;49.594;8.734;2023-01-09T05:02:56;7.60;99.90
34574;DHT22;20809;49.594;8.734;2023-01-09T05:05:57;7.60;99.90
34574;DHT22;20809;49.594;8.734;2023-01-09T05:08:58;7.60;99.90
34574;DHT22;20809;49.594;8.734;2023-01-09T05:11:58;7.60;99.90
34574;DHT22;20809;49.594;8.734;2023-01-09T05:14:59;7.50;99.90
34574;DHT22;20809;49.594;8.734;2023-01-09T05:18:00;7.50;99.90
34574;DHT22;20809;49.594;8.734;2023-01-09T05:21:01;7.50;99.90
34574;DHT22;20809;49.594;8.734;2023-01-09T05:24:01;7.50;99.90
34574;DHT22;20809;49.594;8.734;2023-01-09T05:27:02;7.50;99.90
34574;DHT22;20809;49.594;8.734;2023-01-09T05:30:03;7.50;99.90
34574;DHT22;20809;49.594;8.734;2023-01-09T05:33:04;7.40;99.90
34574;DHT22;20809;49.594;8.734;2023-01-09T05:36:05;7.40;99.90
34574;DHT22;20809;49.594;8.734;2023-01-09T05:39:06;7.30;99.90
34574;DHT22;20809;49.594;8.734;2023-01-09T05:42:06;7.30;99.90
34574;DHT22;20809;49.594;8.734;2023-01-09T05:45:08;7.30;99.90
34574;DHT22;20809;49.594;8.734;2023-01-09T05:48:09;7.30;99.90
34574;DHT22;20809;49.594;8.734;2023-01-09T05:51:10;7.20;99.90
34574;DHT22;20809;49.594;8.734;2023-01-09T05:54:11;7.30;99.90
34574;DHT22;20809;49.594;8.734;2023-01-09T05:57:12;7.30;99.90
34574;DHT22;20809;49.594;8.734;2023-01-09T06:00:13;7.20;99.90
34574;DHT22;20809;49.594;8.734;2023-01-09T06:03:14;7.20;99.90
34574;DHT22;20809;49.594;8.734;2023-01-09T06:06:14;7.10;99.90
34574;DHT22;20809;49.594;8.734;2023-01-09T06:09:15;7.00;99.90
34574;DHT22;20809;49.594;8.734;2023-01-09T06:12:16;6.80;99.90
34574;DHT22;20809;49.594;8.734;2023-01-09T06:15:16;6.70;99.90
34574;DHT22;20809;49.594;8.734;2023-01-09T06:18:17;6.60;99.90
34574;DHT22;20809;49.594;8.734;2023-01-09T06:21:18;6.60;99.90
34574;DHT22;20809;49.594;8.734;2023-01-09T06:24:19;6.60;99.90
34574;DHT22;20809;49.594;8.734;2023-01-09T06:27:19;6.60;99.90
34574;DHT22;20809;49.594;8.734;2023-01-09T06:30:20;6.70;99.90
34574;DHT22;20809;49.594;8.734;2023-01-09T06:33:21;6.80;99.90
34574;DHT22;20809;49.594;8.734;2023-01-09T06:36:22;6.80;99.90
34574;DHT22;20809;49.594;8.734;2023-01-09T06:39:22;6.80;99.90
34574;DHT22;20809;49.594;8.734;2023-01-09T06:42:23;6.90;99.90
34574;DHT22;20809;49.594;8.734;2023-01-09T06:45:24;6.90;99.90
34574;DHT22;20809;49.594;8.734;2023-01-09T06:48:25;6.90;99.90
34574;DHT22;20809;49.594;8.734;2023-01-09T06:51:25;6.90;99.90
34574;DHT22;20809;49.594;8.734;2023-01-09T06:54:26;6.90;99.90
34574;DHT22;20809;49.594;8.734;2023-01-09T06:57:27;6.90;99.90
34574;DHT22;20809;49.594;8.734;2023-01-09T07:00:28;6.90;99.90
34574;DHT22;20809;49.594;8.734;2023-01-09T07:03:29;6.90;99.90
34574;DHT22;20809;49.594;8.734;2023-01-09T07:06:29;6.90;99.90
34574;DHT22;20809;49.594;8.734;2023-01-09T07:09:30;6.90;99.90
34574;DHT22;20809;49.594;8.734;2023-01-09T07:12:31;6.90;99.90
34574;DHT22;20809;49.594;8.734;2023-01-09T07:15:31;6.90;99.90
34574;DHT22;20809;49.594;8.734;2023-01-09T07:18:32;6.90;99.90
34574;DHT22;20809;49.594;8.734;2023-01-09T07:21:33;6.80;99.90
34574;DHT22;20809;49.594;8.734;2023-01-09T07:24:33;6.90;99.90
34574;DHT22;20809;49.594;8.734;2023-01-09T07:27:34;6.90;99.90
34574;DHT22;20809;49.594;8.734;2023-01-09T07:30:35;6.90;99.90
34574;DHT22;20809;49.594;8.734;2023-01-09T07:33:36;6.80;99.90
34574;DHT22;20809;49.594;8.734;2023-01-09T07:36:36;6.80;99.90
34574;DHT22;20809;49.594;8.734;2023-01-09T07:39:37;6.70;99.90
34574;DHT22;20809;49.594;8.734;2023-01-09T07:42:38;6.70;99.90
34574;DHT22;20809;49.594;8.734;2023-01-09T07:45:38;6.80;99.90
34574;DHT22;20809;49.594;8.734;2023-01-09T07:48:39;6.70;99.90
34574;DHT22;20809;49.594;8.734;2023-01-09T07:51:40;6.70;99.90
34574;DHT22;20809;49.594;8.734;2023-01-09T07:54:42;6.70;99.90
34574;DHT22;20809;49.594;8.734;2023-01-09T07:57:47;6.70;99.90
34574;DHT22;20809;49.594;8.734;2023-01-09T08:00:49;6.80;99.90
34574;DHT22;20809;49.594;8.734;2023-01-09T08:03:50;6.70;99.90
34574;DHT22;20809;49.594;8.734;2023-01-09T08:06:51;6.80;99.90
34574;DHT22;20809;49.594;8.734;2023-01-09T08:09:51;6.80;99.90
34574;DHT22;20809;49.594;8.734;2023-01-09T08:12:52;6.80;99.90
34574;DHT22;20809;49.594;8.734;2023-01-09T08:15:53;6.80;99.90
34574;DHT22;20809;49.594;8.734;2023-01-09T08:18:54;6.80;99.90
34574;DHT22;20809;49.594;8.734;2023-01-09T08:21:54;6.60;99.90
34574;DHT22;20809;49.594;8.734;2023-01-09T08:24:55;6.60;99.90
34574;DHT22;20809;49.594;8.734;2023-01-09T08:27:56;6.60;99.90
34574;DHT22;20809;49.594;8.734;2023-01-09T08:30:59;6.60;99.90
34574;DHT22;20809;49.594;8.734;2023-01-09T08:34:00;6.80;99.90
34574;DHT22;20809;49.594;8.734;2023-01-09T08:37:01;6.90;99.90
34574;DHT22;20809;49.594;8.734;2023-01-09T08:40:02;7.00;99.90
34574;DHT22;20809;49.594;8.734;2023-01-09T08:43:02;7.10;99.90
34574;DHT22;20809;49.594;8.734;2023-01-09T08:46:21;7.20;99.90
34574;DHT22;20809;49.594;8.734;2023-01-09T08:49:41;7.20;99.90
34574;DHT22;20809;49.594;8.734;2023-01-09T08:52:41;7.50;99.90
34574;DHT22;20809;49.594;8.734;2023-01-09T08:55:42;7.70;99.90
34574;DHT22;20809;49.594;8.734;2023-01-09T08:58:43;7.90;99.90
34574;DHT22;20809;49.594;8.734;2023-01-09T09:01:44;8.00;99.90
34574;DHT22;20809;49.594;8.734;2023-01-09T09:04:51;8.00;99.90
34574;DHT22;20809;49.594;8.734;2023-01-09T09:07:53;8.00;99.90
34574;DHT22;20809;49.594;8.734;2023-01-09T09:10:55;7.80;99.90
34574;DHT22;20809;49.594;8.734;2023-01-09T09:13:57;7.80;99.90
34574;DHT22;20809;49.594;8.734;2023-01-09T09:16:57;7.90;99.90
34574;DHT22;20809;49.594;8.734;2023-01-09T09:19:58;7.90;99.90
34574;DHT22;20809;49.594;8.734;2023-01-09T09:22:59;7.80;99.90
34574;DHT22;20809;49.594;8.734;2023-01-09T09:26:00;7.70;99.90
34574;DHT22;20809;49.594;8.734;2023-01-09T09:29:01;7.70;99.90
34574;DHT22;20809;49.594;8.734;2023-01-09T09:32:01;7.70;99.90
34574;DHT22;20809;49.594;8.734;2023-01-09T09:35:02;7.70;99.90
34574;DHT22;20809;49.594;8.734;2023-01-09T09:38:04;7.70;99.90
34574;DHT22;20809;49.594;8.734;2023-01-09T09:51:20;7.90;99.90
34574;DHT22;20809;49.594;8.734;2023-01-09T09:54:34;7.90;99.90
34574;DHT22;20809;49.594;8.734;2023-01-09T09:57:38;8.00;99.90
34574;DHT22;20809;49.594;8.734;2023-01-09T10:00:39;8.00;99.90
34574;DHT22;20809;49.594;8.734;2023-01-09T10:03:50;8.10;99.90
34574;DHT22;20809;49.594;8.734;2023-01-09T10:07:04;8.20;99.90
34574;DHT22;20809;49.594;8.734;2023-01-09T10:13:23;8.10;99.90
34574;DHT22;20809;49.594;8.734;2023-01-09T10:16:48;7.90;99.90
34574;DHT22;20809;49.594;8.734;2023-01-09T10:20:13;7.80;99.90
34574;DHT22;20809;49.594;8.734;2023-01-09T10:26:44;7.80;99.90
34574;DHT22;20809;49.594;8.734;2023-01-09T10:39:57;7.60;99.90
34574;DHT22;20809;49.594;8.734;2023-01-09T10:43:05;7.60;99.90
34574;DHT22;20809;49.594;8.734;2023-01-09T10:46:21;7.70;99.90
34574;DHT22;20809;49.594;8.734;2023-01-09T10:49:23;7.70;99.90
34574;DHT22;20809;49.594;8.734;2023-01-09T10:52:32;7.70;99.90
34574;DHT22;20809;49.594;8.734;2023-01-09T10:55:45;7.80;99.90
34574;DHT22;20809;49.594;8.734;2023-01-09T10:58:49;7.80;99.90
34574;DHT22;20809;49.594;8.734;2023-01-09T11:01:51;7.90;99.90
34574;DHT22;20809;49.594;8.734;2023-01-09T11:04:52;8.00;99.90
34574;DHT22;20809;49.594;8.734;2023-01-09T11:11:09;8.30;99.90
34574;DHT22;20809;49.594;8.734;2023-01-09T11:14:14;8.20;99.90
34574;DHT22;20809;49.594;8.734;2023-01-09T11:17:21;8.10;99.90
34574;DHT22;20809;49.594;8.734;2023-01-09T11:20:28;8.40;99.90
34574;DHT22;20809;49.594;8.734;2023-01-09T11:23:32;8.60;99.90
34574;DHT22;20809;49.594;8.734;2023-01-09T11:26:33;8.50;99.90
34574;DHT22;20809;49.594;8.734;2023-01-09T11:29:34;8.30;99.90
34574;DHT22;20809;49.594;8.734;2023-01-09T11:32:35;8.10;99.90
34574;DHT22;20809;49.594;8.734;2023-01-09T11:35:36;8.10;99.90
34574;DHT22;20809;49.594;8.734;2023-01-09T11:38:53;8.00;99.90
34574;DHT22;20809;49.594;8.734;2023-01-09T11:41:59;8.00;99.90
34574;DHT22;20809;49.594;8.734;2023-01-09T11:45:01;8.20;99.90
34574;DHT22;20809;49.594;8.734;2023-01-09T11:48:26;8.20;99.90
34574;DHT22;20809;49.594;8.734;2023-01-09T11:51:31;8.20;99.90
34574;DHT22;20809;49.594;8.734;2023-01-09T11:54:34;8.10;99.90
34574;DHT22;20809;49.594;8.734;2023-01-09T11:57:37;8.10;99.90
34574;DHT22;20809;49.594;8.734;2023-01-09T12:00:50;7.90;99.90
34574;DHT22;20809;49.594;8.734;2023-01-09T12:10:35;7.80;99.90
34574;DHT22;20809;49.594;8.734;2023-01-09T12:17:29;7.80;99.90
34574;DHT22;20809;49.594;8.734;2023-01-09T12:47:56;7.30;99.90
34574;DHT22;20809;49.594;8.734;2023-01-09T12:51:15;7.30;99.90
34574;DHT22;20809;49.594;8.734;2023-01-09T12:54:48;7.30;99.90
34574;DHT22;20809;49.594;8.734;2023-01-09T12:57:54;7.30;99.90
34574;DHT22;20809;49.594;8.734;2023-01-09T13:00:59;7.30;99.90
34574;DHT22;20809;49.594;8.734;2023-01-09T13:04:22;7.30;99.90
34574;DHT22;20809;49.594;8.734;2023-01-09T13:07:29;7.20;99.90
34574;DHT22;20809;49.594;8.734;2023-01-09T13:10:38;7.20;99.90
34574;DHT22;20809;49.594;8.734;2023-01-09T13:17:07;6.90;99.90
34574;DHT22;20809;49.594;8.734;2023-01-09T13:20:31;6.90;99.90
34574;DHT22;20809;49.594;8.734;2023-01-09T13:23:40;6.90;99.90
34574;DHT22;20809;49.594;8.734;2023-01-09T13:26:46;6.80;99.90
34574;DHT22;20809;49.594;8.734;2023-01-09T13:29:52;6.80;99.90
34574;DHT22;20809;49.594;8.734;2023-01-09T13:36:32;6.70;99.90
34574;DHT22;20809;49.594;8.734;2023-01-09T13:39:34;6.60;99.90
34574;DHT22;20809;49.594;8.734;2023-01-09T13:42:35;6.60;99.90
34574;DHT22;20809;49.594;8.734;2023-01-09T13:45:38;6.60;99.90
34574;DHT22;20809;49.594;8.734;2023-01-09T13:48:39;6.60;99.90
34574;DHT22;20809;49.594;8.734;2023-01-09T14:04:39;6.80;99.90
34574;DHT22;20809;49.594;8.734;2023-01-09T14:07:42;6.80;99.90
34574;DHT22;20809;49.594;8.734;2023-01-09T14:10:47;6.80;99.90
34574;DHT22;20809;49.594;8.734;2023-01-09T14:13:58;6.80;99.90
34574;DHT22;20809;49.594;8.734;2023-01-09T14:16:59;6.90;99.90
34574;DHT22;20809;49.594;8.734;2023-01-09T14:20:22;7.00;99.90
34574;DHT22;20809;49.594;8.734;2023-01-09T14:23:26;6.90;99.90
34574;DHT22;20809;49.594;8.734;2023-01-09T14:26:45;6.90;99.90
34574;DHT22;20809;49.594;8.734;2023-01-09T14:29:45;6.80;99.90
34574;DHT22;20809;49.594;8.734;2023-01-09T14:36:14;6.80;99.90
34574;DHT22;20809;49.594;8.734;2023-01-09T14:39:17;6.70;99.90
34574;DHT22;20809;49.594;8.734;2023-01-09T14:42:26;6.60;99.90
34574;DHT22;20809;49.594;8.734;2023-01-09T14:45:29;6.60;99.90
34574;DHT22;20809;49.594;8.734;2023-01-09T14:48:31;6.50;99.90
34574;DHT22;20809;49.594;8.734;2023-01-09T14:51:36;6.50;99.90
34574;DHT22;20809;49.594;8.734;2023-01-09T14:54:40;6.40;99.90
34574;DHT22;20809;49.594;8.734;2023-01-09T14:57:42;6.40;99.90
34574;DHT22;20809;49.594;8.734;2023-01-09T15:01:18;6.40;99.90
34574;DHT22;20809;49.594;8.734;2023-01-09T15:04:27;6.40;99.90
34574;DHT22;20809;49.594;8.734;2023-01-09T15:07:33;6.50;99.90
34574;DHT22;20809;49.594;8.734;2023-01-09T15:10:42;6.50;99.90
34574;DHT22;20809;49.594;8.734;2023-01-09T15:13:47;6.40;99.90
34574;DHT22;20809;49.594;8.734;2023-01-09T15:16:50;6.50;99.90
34574;DHT22;20809;49.594;8.734;2023-01-09T15:19:51;6.50;99.90
34574;DHT22;20809;49.594;8.734;2023-01-09T15:22:52;6.50;99.90
34574;DHT22;20809;49.594;8.734;2023-01-09T15:25:55;6.40;99.90
34574;DHT22;20809;49.594;8.734;2023-01-09T15:29:03;6.40;99.90
34574;DHT22;20809;49.594;8.734;2023-01-09T15:32:27;6.20;99.90
34574;DHT22;20809;49.594;8.734;2023-01-09T15:35:28;6.20;99.90
34574;DHT22;20809;49.594;8.734;2023-01-09T15:38:29;6.10;99.90
34574;DHT22;20809;49.594;8.734;2023-01-09T15:41:31;6.10;99.90
34574;DHT22;20809;49.594;8.734;2023-01-09T15:44:50;6.20;99.90
34574;DHT22;20809;49.594;8.734;2023-01-09T15:47:53;6.20;99.90
34574;DHT22;20809;49.594;8.734;2023-01-09T15:51:12;6.20;99.90
34574;DHT22;20809;49.594;8.734;2023-01-09T15:54:16;6.20;99.90
34574;DHT22;20809;49.594;8.734;2023-01-09T16:00:36;6.10;99.90
34574;DHT22;20809;49.594;8.734;2023-01-09T16:03:40;6.10;99.90
34574;DHT22;20809;49.594;8.734;2023-01-09T16:06:47;6.20;99.90
34574;DHT22;20809;49.594;8.734;2023-01-09T16:09:49;6.20;99.90
34574;DHT22;20809;49.594;8.734;2023-01-09T16:12:53;6.20;99.90
34574;DHT22;20809;49.594;8.734;2023-01-09T16:15:54;6.30;99.90
34574;DHT22;20809;49.594;8.734;2023-01-09T16:18:59;6.30;99.90
34574;DHT22;20809;49.594;8.734;2023-01-09T16:22:01;6.30;99.90
34574;DHT22;20809;49.594;8.734;2023-01-09T16:25:31;6.30;99.90
34574;DHT22;20809;49.594;8.734;2023-01-09T16:28:37;6.30;99.90
34574;DHT22;20809;49.594;8.734;2023-01-09T16:31:40;6.30;99.90
34574;DHT22;20809;49.594;8.734;2023-01-09T16:34:41;6.30;99.90
34574;DHT22;20809;49.594;8.734;2023-01-09T16:37:43;6.20;99.90
34574;DHT22;20809;49.594;8.734;2023-01-09T16:41:05;6.20;99.90
34574;DHT22;20809;49.594;8.734;2023-01-09T16:44:24;6.20;99.90
34574;DHT22;20809;49.594;8.734;2023-01-09T16:47:25;6.10;99.90
34574;DHT22;20809;49.594;8.734;2023-01-09T16:50:26;6.10;99.90
34574;DHT22;20809;49.594;8.734;2023-01-09T16:53:27;6.20;99.90
34574;DHT22;20809;49.594;8.734;2023-01-09T16:56:31;6.20;99.90
34574;DHT22;20809;49.594;8.734;2023-01-09T16:59:32;6.30;99.90
34574;DHT22;20809;49.594;8.734;2023-01-09T17:02:32;6.30;99.90
34574;DHT22;20809;49.594;8.734;2023-01-09T17:05:33;6.20;99.90
34574;DHT22;20809;49.594;8.734;2023-01-09T17:08:35;6.20;99.90
34574;DHT22;20809;49.594;8.734;2023-01-09T17:11:36;6.20;99.90
34574;DHT22;20809;49.594;8.734;2023-01-09T17:14:36;6.20;99.90
34574;DHT22;20809;49.594;8.734;2023-01-09T17:17:37;6.20;99.90
34574;DHT22;20809;49.594;8.734;2023-01-09T17:20:38;6.20;99.90
34574;DHT22;20809;49.594;8.734;2023-01-09T17:23:40;6.20;99.90
34574;DHT22;20809;49.594;8.734;2023-01-09T17:26:46;6.10;99.90
34574;DHT22;20809;49.594;8.734;2023-01-09T17:30:08;6.00;99.90
34574;DHT22;20809;49.594;8.734;2023-01-09T17:33:14;6.00;99.90
34574;DHT22;20809;49.594;8.734;2023-01-09T17:36:35;6.00;99.90
34574;DHT22;20809;49.594;8.734;2023-01-09T17:39:36;6.00;99.90
34574;DHT22;20809;49.594;8.734;2023-01-09T17:42:37;5.90;99.90
34574;DHT22;20809;49.594;8.734;2023-01-09T17:45:38;5.90;99.90
34574;DHT22;20809;49.594;8.734;2023-01-09T17:48:42;5.90;99.90
34574;DHT22;20809;49.594;8.734;2023-01-09T17:51:43;5.90;99.90
34574;DHT22;20809;49.594;8.734;2023-01-09T17:54:44;5.90;99.90
34574;DHT22;20809;49.594;8.734;2023-01-09T17:57:45;5.80;99.90
34574;DHT22;20809;49.594;8.734;2023-01-09T18:00:46;5.80;99.90
34574;DHT22;20809;49.594;8.734;2023-01-09T18:03:47;5.80;99.90
34574;DHT22;20809;49.594;8.734;2023-01-09T18:06:48;5.80;99.90
34574;DHT22;20809;49.594;8.734;2023-01-09T18:09:49;5.80;99.90
34574;DHT22;20809;49.594;8.734;2023-01-09T18:12:50;5.70;99.90
34574;DHT22;20809;49.594;8.734;2023-01-09T18:15:51;5.70;99.90
34574;DHT22;20809;49.594;8.734;2023-01-09T18:18:55;5.60;99.90
34574;DHT22;20809;49.594;8.734;2023-01-09T18:21:59;5.60;99.90
34574;DHT22;20809;49.594;8.734;2023-01-09T18:25:00;5.60;99.90
34574;DHT22;20809;49.594;8.734;2023-01-09T18:28:00;5.60;99.90
34574;DHT22;20809;49.594;8.734;2023-01-09T18:31:03;5.50;99.90
34574;DHT22;20809;49.594;8.734;2023-01-09T18:34:04;5.50;99.90
34574;DHT22;20809;49.594;8.734;2023-01-09T18:37:06;5.50;99.90
34574;DHT22;20809;49.594;8.734;2023-01-09T18:40:08;5.40;99.90
34574;DHT22;20809;49.594;8.734;2023-01-09T18:43:09;5.40;99.90
34574;DHT22;20809;49.594;8.734;2023-01-09T18:46:10;5.40;99.90
34574;DHT22;20809;49.594;8.734;2023-01-09T18:49:11;5.30;99.90
34574;DHT22;20809;49.594;8.734;2023-01-09T18:52:12;5.40;99.90
34574;DHT22;20809;49.594;8.734;2023-01-09T18:55:13;5.30;99.90
34574;DHT22;20809;49.594;8.734;2023-01-09T18:58:13;5.30;99.90
34574;DHT22;20809;49.594;8.734;2023-01-09T19:01:15;5.30;99.90
34574;DHT22;20809;49.594;8.734;2023-01-09T19:04:16;5.30;99.90
34574;DHT22;20809;49.594;8.734;2023-01-09T19:07:17;5.20;99.90
34574;DHT22;20809;49.594;8.734;2023-01-09T19:10:17;5.20;99.90
34574;DHT22;20809;49.594;8.734;2023-01-09T19:13:18;5.20;99.90
34574;DHT22;20809;49.594;8.734;2023-01-09T19:16:19;5.20;99.90
34574;DHT22;20809;49.594;8.734;2023-01-09T19:19:20;5.30;99.90
34574;DHT22;20809;49.594;8.734;2023-01-09T19:22:21;5.30;99.90
34574;DHT22;20809;49.594;8.734;2023-01-09T19:25:22;5.40;99.90
34574;DHT22;20809;49.594;8.734;2023-01-09T19:28:23;5.40;99.90
34574;DHT22;20809;49.594;8.734;2023-01-09T19:31:25;5.40;99.90
34574;DHT22;20809;49.594;8.734;2023-01-09T19:34:27;5.40;99.90
34574;DHT22;20809;49.594;8.734;2023-01-09T19:37:28;5.50;99.90
34574;DHT22;20809;49.594;8.734;2023-01-09T19:40:28;5.40;99.90
34574;DHT22;20809;49.594;8.734;2023-01-09T19:43:29;5.50;99.90
34574;DHT22;20809;49.594;8.734;2023-01-09T19:46:30;5.50;99.90
34574;DHT22;20809;49.594;8.734;2023-01-09T19:49:33;5.50;99.90
34574;DHT22;20809;49.594;8.734;2023-01-09T19:52:33;5.50;99.90
34574;DHT22;20809;49.594;8.734;2023-01-09T19:55:35;5.50;99.90
34574;DHT22;20809;49.594;8.734;2023-01-09T19:58:38;5.60;99.90
34574;DHT22;20809;49.594;8.734;2023-01-09T20:01:39;5.50;99.90
34574;DHT22;20809;49.594;8.734;2023-01-09T20:04:41;5.50;99.90
34574;DHT22;20809;49.594;8.734;2023-01-09T20:07:41;5.60;99.90
34574;DHT22;20809;49.594;8.734;2023-01-09T20:10:42;5.60;99.90
34574;DHT22;20809;49.594;8.734;2023-01-09T20:13:43;5.60;99.90
34574;DHT22;20809;49.594;8.734;2023-01-09T20:16:44;5.60;99.90
34574;DHT22;20809;49.594;8.734;2023-01-09T20:19:46;5.60;99.90
34574;DHT22;20809;49.594;8.734;2023-01-09T20:22:47;5.60;99.90
34574;DHT22;20809;49.594;8.734;2023-01-09T20:25:50;5.60;99.90
34574;DHT22;20809;49.594;8.734;2023-01-09T20:28:51;5.70;99.90
34574;DHT22;20809;49.594;8.734;2023-01-09T20:31:52;5.60;99.90
34574;DHT22;20809;49.594;8.734;2023-01-09T20:34:52;5.60;99.90
34574;DHT22;20809;49.594;8.734;2023-01-09T20:37:53;5.70;99.90
34574;DHT22;20809;49.594;8.734;2023-01-09T20:40:54;5.70;99.90
34574;DHT22;20809;49.594;8.734;2023-01-09T20:44:00;5.70;99.90
34574;DHT22;20809;49.594;8.734;2023-01-09T20:47:01;5.80;99.90
34574;DHT22;20809;49.594;8.734;2023-01-09T20:50:02;5.80;99.90
34574;DHT22;20809;49.594;8.734;2023-01-09T20:53:03;5.80;99.90
34574;DHT22;20809;49.594;8.734;2023-01-09T20:56:06;5.90;99.90
34574;DHT22;20809;49.594;8.734;2023-01-09T20:59:10;5.90;99.90
34574;DHT22;20809;49.594;8.734;2023-01-09T21:02:13;5.90;99.90
34574;DHT22;20809;49.594;8.734;2023-01-09T21:05:14;5.90;99.90
34574;DHT22;20809;49.594;8.734;2023-01-09T21:08:14;6.00;99.90
34574;DHT22;20809;49.594;8.734;2023-01-09T21:11:16;6.00;99.90
34574;DHT22;20809;49.594;8.734;2023-01-09T21:14:17;5.90;99.90
34574;DHT22;20809;49.594;8.734;2023-01-09T21:17:17;5.90;99.90
34574;DHT22;20809;49.594;8.734;2023-01-09T21:20:18;6.00;99.90
34574;DHT22;20809;49.594;8.734;2023-01-09T21:23:19;6.00;99.90
34574;DHT22;20809;49.594;8.734;2023-01-09T21:26:21;6.00;99.90
34574;DHT22;20809;49.594;8.734;2023-01-09T21:29:23;6.00;99.90
34574;DHT22;20809;49.594;8.734;2023-01-09T21:32:24;6.00;99.90
34574;DHT22;20809;49.594;8.734;2023-01-09T21:35:25;6.00;99.90
34574;DHT22;20809;49.594;8.734;2023-01-09T21:38:26;6.00;99.90
34574;DHT22;20809;49.594;8.734;2023-01-09T21:41:26;6.00;99.90
34574;DHT22;20809;49.594;8.734;2023-01-09T21:44:46;6.00;99.90